Time;durP1;ratioP1;P1;durP2;ratioP2;P2;SDS_P1;SDS_P2;PMS_P1;PMS_P2;Temp;Humidity;BMP_temperature;BMP_pressure;BME280_temperature;BME280_humidity;BME280_pressure;Samples;Min_cycle;Max_cycle;Signal;HPM_P1;HPM_P2
2023/01/18 00:01:52;;;;;;;33.35;15.95;;;-3275.50;96.90;;;;;;5030840;28;20057;-69
2023/01/18 00:04:17;;;;;;;42.38;17.20;;;-3275.50;96.90;;;;;;5030536;28;20065;-69
2023/01/18 00:06:43;;;;;;;42.45;18.38;;;-3275.40;96.90;;;;;;5027593;28;20030;-69
2023/01/18 00:09:08;;;;;;;41.33;17.50;;;-3275.40;96.90;;;;;;5030264;28;20088;-68
2023/01/18 00:11:34;;;;;;;40.70;16.75;;;-3275.30;96.90;;;;;;5030465;28;20511;-69
2023/01/18 00:14:01;;;;;;;36.58;16.92;;;-3275.30;97.20;;;;;;5029533;28;20116;-68
2023/01/18 00:16:29;;;;;;;40.90;16.90;;;-3275.30;97.00;;;;;;5027219;28;20021;-69
2023/01/18 00:18:56;;;;;;;37.33;17.30;;;-3275.30;97.10;;;;;;5029944;28;20017;-69
2023/01/18 00:21:23;;;;;;;40.95;17.27;;;-3275.30;97.10;;;;;;5027898;28;20072;-68
2023/01/18 00:23:49;;;;;;;36.55;17.67;;;-3275.30;97.10;;;;;;5026866;28;20029;-69
2023/01/18 00:26:15;;;;;;;41.72;17.92;;;-3275.30;97.20;;;;;;5029685;28;20136;-69
2023/01/18 00:28:41;;;;;;;38.50;18.35;;;-3275.10;97.10;;;;;;5030104;28;20456;-69
2023/01/18 00:31:11;;;;;;;36.95;16.17;;;-3275.20;97.30;;;;;;5028604;28;20037;-68
2023/01/18 00:33:37;;;;;;;37.10;18.40;;;-3275.20;97.30;;;;;;5026786;28;20039;-68
2023/01/18 00:36:03;;;;;;;35.88;17.95;;;-3275.10;97.40;;;;;;5023838;28;20044;-68
2023/01/18 00:38:29;;;;;;;38.13;17.48;;;-3275.20;97.40;;;;;;5027917;28;20036;-70
2023/01/18 00:40:55;;;;;;;41.03;18.38;;;-3275.20;97.30;;;;;;5033680;28;20425;-70
2023/01/18 00:43:39;;;;;;;41.33;18.73;;;-3275.20;97.40;;;;;;5030328;28;20414;-69
2023/01/18 00:46:13;;;;;;;39.60;17.85;;;-3275.20;97.40;;;;;;5028295;28;20030;-70
2023/01/18 00:48:40;;;;;;;38.42;17.15;;;-3275.20;97.40;;;;;;5025884;28;20075;-69
2023/01/18 00:51:11;;;;;;;44.28;19.23;;;-3275.20;97.50;;;;;;5025925;28;20033;-69
2023/01/18 00:53:37;;;;;;;48.47;18.92;;;-3275.20;97.40;;;;;;5026460;28;20033;-68
2023/01/18 00:56:07;;;;;;;39.47;17.25;;;-3275.20;97.50;;;;;;5036285;28;20040;-69
2023/01/18 00:58:33;;;;;;;38.38;18.02;;;-3275.20;97.50;;;;;;5030713;28;20075;-71
2023/01/18 01:00:58;;;;;;;43.10;18.52;;;-3275.20;97.50;;;;;;5028781;28;20410;-68
2023/01/18 01:03:24;;;;;;;43.20;19.08;;;-3275.10;97.40;;;;;;5030718;28;20030;-69
2023/01/18 01:08:33;;;;;;;39.42;17.83;;;-3275.20;97.60;;;;;;5030906;28;20060;-69
2023/01/18 01:11:08;;;;;;;39.22;19.25;;;-3275.10;97.30;;;;;;5028435;28;20029;-71
2023/01/18 01:27:14;;;;;;;47.33;19.58;;;-3275.10;97.40;;;;;;5033856;28;20040;-69
2023/01/18 01:29:39;;;;;;;51.35;19.40;;;-3275.20;97.30;;;;;;5032467;28;20481;-69
2023/01/18 01:32:05;;;;;;;44.13;19.85;;;-3275.10;97.30;;;;;;5026988;28;20022;-69
2023/01/18 01:34:31;;;;;;;42.55;19.02;;;-3275.20;97.20;;;;;;5032906;28;20044;-69
2023/01/18 01:36:57;;;;;;;44.55;20.05;;;-3275.20;97.20;;;;;;5027033;28;20370;-69
2023/01/18 01:39:23;;;;;;;53.83;21.15;;;-3275.20;97.00;;;;;;5033058;28;20500;-69
2023/01/18 01:41:49;;;;;;;46.53;21.35;;;-3275.10;97.10;;;;;;5032966;28;20029;-69
2023/01/18 01:44:20;;;;;;;41.38;19.52;;;-3275.10;97.10;;;;;;5029055;28;20079;-69
2023/01/18 01:46:53;;;;;;;50.85;21.23;;;-3275.10;97.00;;;;;;5033956;28;20029;-68
2023/01/18 01:49:31;;;;;;;47.08;19.70;;;-3275.00;97.00;;;;;;5029586;28;20029;-70
2023/01/18 01:52:20;;;;;;;47.78;20.45;;;-3275.00;97.10;;;;;;5032507;28;20033;-69
2023/01/18 01:54:58;;;;;;;47.17;20.67;;;-3274.90;97.10;;;;;;5035164;28;20033;-69
2023/01/18 01:57:52;;;;;;;45.65;19.50;;;-3274.90;97.20;;;;;;5033725;28;20026;-69
2023/01/18 02:00:19;;;;;;;43.55;18.70;;;-3274.90;97.30;;;;;;5027183;28;20045;-69
2023/01/18 02:02:50;;;;;;;47.30;21.27;;;-3275.00;97.30;;;;;;5026352;28;20034;-69
2023/01/18 02:05:17;;;;;;;46.30;20.83;;;-3275.00;97.30;;;;;;5032091;28;20025;-69
2023/01/18 02:07:43;;;;;;;45.85;20.75;;;-3275.00;97.40;;;;;;5025980;28;20393;-68
2023/01/18 02:10:09;;;;;;;44.80;20.10;;;-3275.00;97.20;;;;;;5032690;28;20033;-73
2023/01/18 02:12:38;;;;;;;41.88;20.38;;;-3275.00;97.10;;;;;;5028687;28;20410;-68
2023/01/18 02:15:04;;;;;;;46.65;19.65;;;-3274.90;97.00;;;;;;5031372;28;20044;-68
2023/01/18 02:18:08;;;;;;;47.38;20.33;;;-3274.90;97.10;;;;;;5031811;28;20030;-68
2023/01/18 02:20:49;;;;;;;43.05;18.45;;;-3274.90;97.20;;;;;;5030403;28;20033;-68
2023/01/18 02:23:33;;;;;;;44.45;20.10;;;-3274.80;97.10;;;;;;5023732;28;20130;-69
2023/01/18 02:26:36;;;;;;;42.30;19.98;;;-3275.00;97.40;;;;;;5032597;28;20033;-68
2023/01/18 02:29:16;;;;;;;36.13;19.35;;;-3275.00;97.40;;;;;;5025874;28;20037;-68
2023/01/18 02:32:16;;;;;;;42.30;19.67;;;-3274.80;97.10;;;;;;5030840;28;20045;-68
2023/01/18 02:35:01;;;;;;;46.47;20.42;;;-3274.80;97.30;;;;;;5029780;28;20057;-68
2023/01/18 02:37:36;;;;;;;43.53;20.60;;;-3274.90;97.30;;;;;;5027803;28;20049;-69
2023/01/18 02:40:26;;;;;;;46.10;19.10;;;-3274.90;97.30;;;;;;5032768;28;20061;-68
2023/01/18 02:48:36;;;;;;;53.25;21.88;;;-3274.80;97.10;;;;;;5032035;28;20045;-73
2023/01/18 02:51:01;;;;;;;46.90;20.35;;;-3274.80;97.20;;;;;;5029682;28;20168;-69
2023/01/18 02:53:27;;;;;;;47.85;19.20;;;-3274.80;97.30;;;;;;5031488;28;20522;-68
2023/01/18 02:56:05;;;;;;;45.40;20.38;;;-3274.90;97.20;;;;;;5035448;28;20067;-69
2023/01/18 02:58:41;;;;;;;49.80;20.48;;;-3274.80;97.20;;;;;;5026679;28;20037;-68
2023/01/18 03:01:09;;;;;;;52.28;20.75;;;-3274.70;97.10;;;;;;5034065;28;20083;-68
2023/01/18 03:03:35;;;;;;;46.60;19.98;;;-3274.70;97.10;;;;;;5029874;28;20103;-69
2023/01/18 03:06:04;;;;;;;46.13;19.52;;;-3274.80;97.40;;;;;;5022634;28;20369;-68
2023/01/18 03:08:37;;;;;;;48.72;20.92;;;-3274.80;97.30;;;;;;5032143;28;20045;-68
2023/01/18 03:11:08;;;;;;;45.20;19.00;;;-3274.80;97.20;;;;;;5023226;28;20887;-71
2023/01/18 03:13:33;;;;;;;50.90;21.25;;;-3274.90;97.10;;;;;;5030142;28;20025;-68
2023/01/18 03:16:31;;;;;;;42.22;20.30;;;-3274.90;97.00;;;;;;5032242;28;20041;-68
2023/01/18 03:21:56;;;;;;;42.38;19.13;;;-3274.70;96.80;;;;;;5027798;28;20079;-68
2023/01/18 03:24:30;;;;;;;44.78;19.15;;;-3274.60;96.80;;;;;;5062632;28;20790;-67
2023/01/18 03:35:18;;;;;;;43.60;19.58;;;-3274.50;97.40;;;;;;5038418;28;20028;-67
2023/01/18 03:37:46;;;;;;;45.03;21.27;;;-3274.50;97.30;;;;;;5042615;28;20488;-67
2023/01/18 03:40:19;;;;;;;46.20;19.88;;;-3274.50;97.30;;;;;;5031494;28;20033;-67
2023/01/18 03:43:10;;;;;;;47.70;20.25;;;-3274.50;97.40;;;;;;5047528;28;20385;-68
2023/01/18 03:45:42;;;;;;;48.05;19.95;;;-3274.50;97.40;;;;;;5043695;28;20065;-67
2023/01/18 03:48:09;;;;;;;44.88;20.58;;;-3274.40;97.30;;;;;;5039682;28;20048;-67
2023/01/18 03:50:47;;;;;;;42.53;20.80;;;-3274.30;97.20;;;;;;5055023;28;20091;-68
2023/01/18 03:53:21;;;;;;;40.22;19.73;;;-3274.30;97.30;;;;;;5054701;28;20029;-69
2023/01/18 03:55:51;;;;;;;39.72;19.15;;;-3274.30;97.40;;;;;;5050798;28;20044;-67
2023/01/18 03:58:24;;;;;;;45.63;20.42;;;-3274.20;97.40;;;;;;5046347;28;20479;-67
2023/01/18 04:00:51;;;;;;;44.72;20.58;;;-3274.20;97.50;;;;;;5043157;28;20037;-66
2023/01/18 04:03:17;;;;;;;44.50;19.88;;;-3274.20;97.50;;;;;;5040768;28;20033;-69
2023/01/18 04:05:42;;;;;;;50.05;21.27;;;-3274.10;97.50;;;;;;5033221;28;20033;-67
2023/01/18 04:08:08;;;;;;;43.67;20.27;;;-3274.10;97.60;;;;;;5032877;28;20543;-67
2023/01/18 04:10:33;;;;;;;45.10;20.55;;;-3274.10;97.70;;;;;;5046888;28;20029;-67
2023/01/18 04:12:59;;;;;;;49.97;20.52;;;-3274.20;97.80;;;;;;5042656;28;20096;-67
2023/01/18 04:15:24;;;;;;;54.03;22.35;;;-3274.20;97.80;;;;;;5044324;28;20045;-67
2023/01/18 04:17:54;;;;;;;46.92;21.63;;;-3274.20;97.90;;;;;;5050123;28;20082;-67
2023/01/18 04:20:20;;;;;;;45.97;19.75;;;-3274.20;97.80;;;;;;5056842;28;20354;-67
2023/01/18 04:22:50;;;;;;;46.50;20.02;;;-3274.20;97.90;;;;;;5043748;28;20064;-66
2023/01/18 04:25:16;;;;;;;56.78;20.75;;;-3274.10;97.80;;;;;;5056714;28;20023;-67
2023/01/18 04:27:41;;;;;;;49.08;21.05;;;-3274.00;97.80;;;;;;5058755;28;20033;-68
2023/01/18 04:30:09;;;;;;;57.42;19.65;;;-3274.00;97.90;;;;;;5052941;28;20040;-68
2023/01/18 04:32:34;;;;;;;56.58;22.20;;;-3274.00;97.90;;;;;;5045903;28;20040;-67
2023/01/18 04:35:00;;;;;;;49.47;20.60;;;-3274.00;97.90;;;;;;5046184;28;20366;-67
2023/01/18 04:37:32;;;;;;;48.88;20.35;;;-3274.00;98.00;;;;;;5016726;28;20034;-67
2023/01/18 04:39:58;;;;;;;50.08;20.27;;;-3274.00;98.00;;;;;;5048489;28;20032;-67
2023/01/18 04:42:24;;;;;;;47.17;21.63;;;-3274.00;98.00;;;;;;5041756;28;20391;-71
2023/01/18 04:44:51;;;;;;;50.45;21.00;;;-3273.90;97.90;;;;;;5039724;28;20047;-67
2023/01/18 04:47:16;;;;;;;47.08;20.65;;;-3273.90;97.90;;;;;;5025951;28;20021;-70
2023/01/18 04:49:43;;;;;;;46.25;20.90;;;-3273.90;98.00;;;;;;5031510;28;20091;-68
2023/01/18 04:52:08;;;;;;;54.80;21.80;;;-3273.90;98.00;;;;;;5043470;28;20056;-67
2023/01/18 04:54:34;;;;;;;57.63;21.17;;;-3273.80;98.00;;;;;;5042063;28;20120;-67
2023/01/18 04:56:59;;;;;;;54.53;21.13;;;-3273.90;98.20;;;;;;5027540;28;20100;-69
2023/01/18 04:59:24;;;;;;;53.85;22.40;;;-3273.90;98.20;;;;;;5038897;28;20029;-67
2023/01/18 05:01:50;;;;;;;50.08;20.10;;;-3273.90;98.20;;;;;;5029121;28;20034;-67
2023/01/18 05:04:16;;;;;;;57.85;22.27;;;-3274.00;98.30;;;;;;5026288;28;20579;-67
2023/01/18 05:06:41;;;;;;;61.08;24.15;;;-3274.00;98.20;;;;;;5020481;28;20036;-67
2023/01/18 05:09:10;;;;;;;57.17;21.15;;;-3274.00;98.20;;;;;;5031824;28;20029;-67
2023/01/18 05:11:35;;;;;;;51.83;22.15;;;-3274.00;98.20;;;;;;5023337;28;20494;-67
2023/01/18 05:14:01;;;;;;;53.88;22.17;;;-3274.00;98.30;;;;;;5028167;28;20072;-67
2023/01/18 05:16:26;;;;;;;55.40;22.20;;;-3274.10;98.20;;;;;;5033990;28;20489;-67
2023/01/18 05:18:52;;;;;;;58.47;23.40;;;-3274.00;98.00;;;;;;5030181;28;20065;-67
2023/01/18 05:21:18;;;;;;;49.92;21.38;;;-3274.00;98.10;;;;;;5036560;28;20333;-67
2023/01/18 05:23:43;;;;;;;59.22;22.17;;;-3273.90;98.00;;;;;;5025375;28;20072;-67
2023/01/18 05:26:18;;;;;;;62.30;21.80;;;-3273.90;98.00;;;;;;5028430;28;20057;-67
2023/01/18 05:28:44;;;;;;;58.75;23.80;;;-3274.00;98.10;;;;;;5022146;28;20120;-70
2023/01/18 05:31:09;;;;;;;63.88;24.42;;;-3274.00;98.10;;;;;;5022063;28;20466;-69
2023/01/18 05:33:35;;;;;;;63.50;23.75;;;-3274.00;98.20;;;;;;5023437;28;20079;-69
2023/01/18 05:36:00;;;;;;;62.10;22.45;;;-3274.10;98.20;;;;;;5029636;28;20022;-69
2023/01/18 05:38:26;;;;;;;58.17;22.95;;;-3274.10;98.20;;;;;;5025041;28;20033;-69
2023/01/18 05:40:53;;;;;;;56.20;23.08;;;-3274.10;98.10;;;;;;5017016;28;20455;-69
2023/01/18 05:43:21;;;;;;;54.17;21.90;;;-3274.10;98.00;;;;;;5024664;28;20041;-70
2023/01/18 05:45:46;;;;;;;60.85;22.98;;;-3274.10;98.10;;;;;;5031672;28;20034;-70
2023/01/18 05:48:12;;;;;;;61.67;22.58;;;-3274.10;98.00;;;;;;5029471;28;20025;-69
2023/01/18 05:50:39;;;;;;;72.63;25.08;;;-3274.20;98.00;;;;;;5024719;28;20030;-69
2023/01/18 05:53:05;;;;;;;62.10;23.65;;;-3274.20;97.90;;;;;;5027133;28;20036;-69
2023/01/18 05:55:30;;;;;;;60.92;23.33;;;-3274.20;97.80;;;;;;5028478;28;20467;-69
2023/01/18 05:57:56;;;;;;;64.03;24.35;;;-3274.20;97.80;;;;;;5029949;28;20038;-69
2023/01/18 06:00:22;;;;;;;64.88;24.25;;;-3274.20;97.70;;;;;;5029145;28;20026;-69
2023/01/18 06:02:47;;;;;;;55.45;23.00;;;-3274.20;97.60;;;;;;5025040;28;20382;-69
2023/01/18 06:05:13;;;;;;;62.63;24.33;;;-3274.10;97.50;;;;;;5020245;28;20025;-69
2023/01/18 06:07:38;;;;;;;63.85;22.73;;;-3274.20;97.70;;;;;;5024725;28;20160;-70
2023/01/18 06:10:04;;;;;;;57.30;23.05;;;-3274.10;97.50;;;;;;5038435;28;20064;-69
2023/01/18 06:12:30;;;;;;;69.57;24.10;;;-3274.10;97.50;;;;;;5026574;28;20033;-69
2023/01/18 06:14:55;;;;;;;66.25;23.83;;;-3274.10;97.50;;;;;;5013084;28;20026;-69
2023/01/18 06:17:21;;;;;;;65.75;24.70;;;-3274.00;97.40;;;;;;5030078;28;20049;-69
2023/01/18 06:19:46;;;;;;;55.58;24.77;;;-3274.00;97.50;;;;;;5036391;28;20417;-69
2023/01/18 06:22:12;;;;;;;61.90;23.58;;;-3274.00;97.60;;;;;;5025841;28;20111;-69
2023/01/18 06:24:37;;;;;;;63.88;23.30;;;-3274.00;97.50;;;;;;5021202;28;20474;-69
2023/01/18 06:27:03;;;;;;;64.30;25.05;;;-3274.00;97.60;;;;;;5019085;28;20033;-69
2023/01/18 06:29:29;;;;;;;58.90;24.42;;;-3274.00;97.60;;;;;;5022071;28;20378;-69
2023/01/18 06:31:54;;;;;;;65.60;25.15;;;-3274.00;97.60;;;;;;5030804;28;20029;-69
2023/01/18 06:34:20;;;;;;;53.53;23.25;;;-3274.10;97.70;;;;;;5025471;28;20064;-69
2023/01/18 06:36:46;;;;;;;57.05;22.88;;;-3274.10;97.50;;;;;;5033377;28;20474;-70
2023/01/18 06:39:12;;;;;;;61.50;24.35;;;-3274.20;97.50;;;;;;5021182;28;20079;-69
2023/01/18 06:41:38;;;;;;;61.80;24.67;;;-3274.00;97.20;;;;;;5030759;28;20038;-69
2023/01/18 06:44:03;;;;;;;62.75;22.90;;;-3274.00;97.20;;;;;;5029952;28;20029;-69
2023/01/18 06:46:29;;;;;;;58.72;22.40;;;-3273.90;97.20;;;;;;5024204;28;20388;-69
2023/01/18 06:48:54;;;;;;;63.28;24.70;;;-3273.90;97.30;;;;;;5018047;28;20429;-69
2023/01/18 06:51:20;;;;;;;53.28;23.70;;;-3273.90;97.20;;;;;;5021993;28;20058;-69
2023/01/18 06:53:46;;;;;;;60.97;24.70;;;-3273.90;97.40;;;;;;5029311;28;20060;-69
2023/01/18 06:56:13;;;;;;;70.47;25.15;;;-3273.90;97.40;;;;;;5027664;28;20056;-69
2023/01/18 06:58:38;;;;;;;58.17;24.17;;;-3273.90;97.50;;;;;;5011154;28;20080;-69
2023/01/18 07:01:04;;;;;;;62.08;25.02;;;-3273.90;97.50;;;;;;5024492;28;20034;-70
2023/01/18 07:03:31;;;;;;;61.80;24.23;;;-3273.90;97.60;;;;;;5027011;28;20389;-70
2023/01/18 07:05:59;;;;;;;60.17;22.88;;;-3273.90;97.50;;;;;;5020307;28;20048;-69
2023/01/18 07:08:25;;;;;;;55.92;23.48;;;-3273.80;97.50;;;;;;5022810;28;20359;-69
2023/01/18 07:10:52;;;;;;;64.13;24.88;;;-3273.80;97.50;;;;;;5028195;28;20028;-70
2023/01/18 07:13:18;;;;;;;54.20;22.05;;;-3273.80;97.50;;;;;;5024769;28;20144;-69
2023/01/18 07:15:44;;;;;;;64.88;23.38;;;-3273.80;97.50;;;;;;5023564;28;20029;-70
2023/01/18 07:18:09;;;;;;;67.20;25.02;;;-3273.80;97.50;;;;;;5028861;28;20032;-70
2023/01/18 07:20:35;;;;;;;53.90;22.52;;;-3273.80;97.40;;;;;;5024377;28;20108;-70
2023/01/18 07:23:01;;;;;;;57.17;23.50;;;-3273.90;97.70;;;;;;5021578;28;20049;-69
2023/01/18 07:25:28;;;;;;;64.88;25.05;;;-3273.90;97.50;;;;;;5025318;28;20021;-71
2023/01/18 07:27:56;;;;;;;65.45;24.98;;;-3273.80;97.40;;;;;;5019662;28;20037;-70
2023/01/18 07:30:22;;;;;;;62.60;24.52;;;-3273.80;97.40;;;;;;5015374;28;20030;-70
2023/01/18 07:32:50;;;;;;;60.95;25.00;;;-3273.80;97.40;;;;;;5021837;28;20045;-70
2023/01/18 07:35:17;;;;;;;63.45;25.20;;;-3273.80;97.50;;;;;;5016210;28;20022;-70
2023/01/18 07:37:48;;;;;;;58.40;23.95;;;-3273.90;97.70;;;;;;5020800;28;20390;-69
2023/01/18 07:40:14;;;;;;;;;;;-3274.00;97.60;;;;;;5024594;28;20089;-69
2023/01/18 07:42:40;;;;;;;58.78;20.92;;;-3274.00;97.40;;;;;;5022723;28;19921;-71
2023/01/18 07:45:07;;;;;;;58.28;23.08;;;-3273.90;97.20;;;;;;5028241;28;20045;-70
2023/01/18 07:47:33;;;;;;;71.68;24.83;;;-3273.90;97.30;;;;;;5027774;28;20053;-70
2023/01/18 07:49:58;;;;;;;60.95;24.52;;;-3274.00;97.40;;;;;;5011685;28;20092;-69
2023/01/18 07:52:24;;;;;;;66.05;24.65;;;-3273.90;97.30;;;;;;5022306;28;20025;-70
2023/01/18 07:54:50;;;;;;;63.22;25.02;;;-3273.90;97.40;;;;;;5016896;28;20026;-69
2023/01/18 07:57:16;;;;;;;62.78;25.38;;;-3273.90;97.20;;;;;;5014847;28;20057;-71
2023/01/18 07:59:41;;;;;;;56.08;23.58;;;-3273.80;97.30;;;;;;5020922;28;20046;-70
2023/01/18 08:02:11;;;;;;;56.33;24.88;;;-3274.00;97.50;;;;;;5017256;28;20109;-71
2023/01/18 08:04:36;;;;;;;66.55;25.00;;;-3274.00;97.40;;;;;;5011992;28;20112;-70
2023/01/18 08:07:02;;;;;;;59.92;24.55;;;-3274.00;97.30;;;;;;5019109;28;20033;-71
2023/01/18 08:09:27;;;;;;;64.18;24.45;;;-3274.00;97.30;;;;;;5018750;28;20117;-70
2023/01/18 08:11:54;;;;;;;67.60;25.70;;;-3274.00;97.30;;;;;;5020705;28;20037;-70
2023/01/18 08:14:19;;;;;;;61.60;23.45;;;-3274.00;97.30;;;;;;5028190;28;20040;-70
2023/01/18 08:16:45;;;;;;;66.35;23.77;;;-3274.10;97.40;;;;;;5029118;28;20029;-70
2023/01/18 08:19:10;;;;;;;67.47;25.08;;;-3274.10;97.30;;;;;;5026285;28;20129;-70
2023/01/18 08:21:36;;;;;;;72.15;24.67;;;-3274.20;97.40;;;;;;5026282;28;20038;-70
2023/01/18 08:24:01;;;;;;;64.38;25.77;;;-3274.20;97.30;;;;;;5026411;28;20058;-71
2023/01/18 08:26:27;;;;;;;59.72;24.80;;;-3274.20;97.30;;;;;;5033278;28;20029;-70
2023/01/18 08:28:52;;;;;;;59.97;23.67;;;-3274.30;97.20;;;;;;5026309;28;20033;-70
2023/01/18 08:31:19;;;;;;;62.80;24.42;;;-3274.30;97.10;;;;;;5018765;28;20156;-71
2023/01/18 08:33:47;;;;;;;72.63;24.92;;;-3274.40;97.00;;;;;;5028410;28;20421;-70
2023/01/18 08:36:15;;;;;;;67.13;25.15;;;-3274.40;96.90;;;;;;5022192;28;20118;-70
2023/01/18 08:38:41;;;;;;;66.95;23.98;;;-3274.50;96.90;;;;;;5026749;28;20033;-71
2023/01/18 08:41:06;;;;;;;60.47;25.65;;;-3274.50;96.80;;;;;;5023087;28;20029;-70
2023/01/18 08:43:33;;;;;;;61.63;24.80;;;-3274.50;96.70;;;;;;5031644;28;20111;-70
2023/01/18 08:45:58;;;;;;;70.40;25.05;;;-3274.60;96.70;;;;;;5025092;28;20482;-70
2023/01/18 08:48:24;;;;;;;57.72;25.38;;;-3274.60;96.70;;;;;;5026635;28;20049;-70
2023/01/18 08:50:49;;;;;;;56.83;25.80;;;-3274.70;96.60;;;;;;5028297;28;20068;-70
2023/01/18 08:53:15;;;;;;;62.58;24.20;;;-3274.80;96.40;;;;;;5021103;28;20038;-70
2023/01/18 08:55:40;;;;;;;55.45;22.77;;;-3274.80;96.30;;;;;;5024719;28;20140;-70
2023/01/18 08:58:05;;;;;;;55.50;22.83;;;-3274.80;96.00;;;;;;5023964;28;20037;-69
2023/01/18 09:00:32;;;;;;;53.42;25.23;;;-3274.90;95.90;;;;;;5021447;28;20065;-70
2023/01/18 09:02:58;;;;;;;56.53;24.17;;;-3275.00;95.90;;;;;;5024556;28;20033;-70
2023/01/18 09:05:24;;;;;;;56.83;24.13;;;-3275.00;95.90;;;;;;5024348;28;20038;-70
2023/01/18 09:07:52;;;;;;;56.10;24.40;;;-3275.00;95.90;;;;;;5020406;28;20026;-70
2023/01/18 09:10:20;;;;;;;50.45;23.05;;;-3275.10;95.70;;;;;;5024088;28;20377;-69
2023/01/18 09:12:45;;;;;;;46.53;23.25;;;-3275.10;95.40;;;;;;5020946;28;20080;-69
2023/01/18 09:15:11;;;;;;;54.35;23.00;;;-3275.20;95.30;;;;;;5020904;28;20434;-70
2023/01/18 09:17:37;;;;;;;46.25;22.95;;;-3275.20;95.20;;;;;;5026308;28;20033;-70
2023/01/18 09:20:06;;;;;;;48.92;22.15;;;-3275.30;95.10;;;;;;5019298;28;20106;-70
2023/01/18 09:22:32;;;;;;;48.45;23.25;;;-3275.30;95.10;;;;;;5021410;28;20053;-69
2023/01/18 09:24:57;;;;;;;49.60;23.35;;;-3275.40;94.70;;;;;;5016694;28;20045;-71
2023/01/18 09:27:22;;;;;;;41.67;21.58;;;-3275.40;94.70;;;;;;5026757;28;20147;-70
2023/01/18 09:29:51;;;;;;;45.42;22.85;;;-3275.50;94.60;;;;;;5023594;28;20033;-70
2023/01/18 09:32:17;;;;;;;45.67;21.42;;;-3275.50;94.60;;;;;;5023451;28;20037;-68
2023/01/18 09:34:45;;;;;;;45.10;21.85;;;-3275.60;94.20;;;;;;5017783;28;20199;-70
2023/01/18 09:37:10;;;;;;;37.85;20.35;;;-3275.70;94.30;;;;;;5021545;28;20052;-70
2023/01/18 09:39:36;;;;;;;40.13;20.30;;;-3275.70;94.10;;;;;;5031304;28;20041;-69
2023/01/18 09:42:03;;;;;;;34.67;20.08;;;-3275.80;93.90;;;;;;5026667;28;20107;-69
2023/01/18 09:44:37;;;;;;;43.00;20.67;;;-3275.90;93.80;;;;;;5030520;28;20040;-69
2023/01/18 09:47:18;;;;;;;32.38;18.45;;;-3276.00;93.70;;;;;;5026959;28;20591;-68
2023/01/18 09:49:53;;;;;;;35.78;18.55;;;-3276.10;93.40;;;;;;5029196;28;20474;-71
2023/01/18 09:52:31;;;;;;;36.50;19.90;;;-3276.20;93.20;;;;;;5017564;28;20029;-68
2023/01/18 09:55:21;;;;;;;33.53;19.13;;;-3276.30;93.00;;;;;;5022081;28;20038;-68
2023/01/18 09:58:25;;;;;;;35.47;18.27;;;-3276.40;92.60;;;;;;5028854;28;20124;-68
2023/01/18 10:01:22;;;;;;;34.45;17.35;;;-3276.50;92.10;;;;;;5023044;28;20053;-68
2023/01/18 10:03:56;;;;;;;32.83;17.05;;;-3276.60;92.40;;;;;;5022108;28;20064;-69
2023/01/18 10:06:42;;;;;;;25.05;15.38;;;-3276.50;91.40;;;;;;5024005;28;20112;-68
2023/01/18 10:09:23;;;;;;;26.98;15.10;;;-3276.60;91.60;;;;;;5029473;28;20037;-68
2023/01/18 10:11:53;;;;;;;25.90;15.32;;;-3276.70;92.00;;;;;;5022332;28;20501;-69
2023/01/18 10:14:58;;;;;;;28.55;15.00;;;-3276.70;91.60;;;;;;5017869;28;20048;-68
2023/01/18 10:17:45;;;;;;;22.98;13.27;;;-3276.70;91.80;;;;;;5026738;28;20060;-69
2023/01/18 10:20:13;;;;;;;22.95;13.15;;;0.00;91.70;;;;;;5011511;28;20386;-69
2023/01/18 10:22:54;;;;;;;24.35;13.48;;;0.00;91.60;;;;;;5020668;28;20388;-69
2023/01/18 10:25:41;;;;;;;25.63;13.43;;;0.00;91.10;;;;;;5023797;28;20030;-70
2023/01/18 10:28:24;;;;;;;21.67;13.77;;;0.00;91.40;;;;;;5015399;28;20037;-70
2023/01/18 10:30:54;;;;;;;24.48;13.73;;;0.00;90.60;;;;;;5022983;28;20029;-70
2023/01/18 10:33:23;;;;;;;24.92;15.38;;;0.10;90.60;;;;;;5022442;28;20022;-70
2023/01/18 10:35:54;;;;;;;23.88;13.32;;;0.20;91.10;;;;;;5023128;28;20033;-70
2023/01/18 10:38:23;;;;;;;80.63;29.20;;;0.20;90.10;;;;;;5023677;28;20029;-70
2023/01/18 10:41:00;;;;;;;62.45;25.67;;;0.20;89.80;;;;;;5018862;28;20656;-70
2023/01/18 10:43:27;;;;;;;75.10;33.33;;;0.30;90.30;;;;;;5021092;28;20049;-70
2023/01/18 10:45:53;;;;;;;28.88;18.02;;;0.30;90.20;;;;;;5015298;28;20442;-70
2023/01/18 10:48:19;;;;;;;29.77;15.60;;;0.30;89.80;;;;;;5023480;28;20399;-70
2023/01/18 10:50:48;;;;;;;35.47;17.55;;;0.30;89.50;;;;;;5021207;28;20389;-70
2023/01/18 10:53:22;;;;;;;32.20;17.55;;;0.40;89.90;;;;;;5022121;28;20029;-70
2023/01/18 10:56:14;;;;;;;29.45;16.83;;;0.40;90.00;;;;;;5023399;28;20101;-70
2023/01/18 10:58:59;;;;;;;23.42;13.02;;;0.40;89.50;;;;;;5013191;28;20026;-70
2023/01/18 11:01:35;;;;;;;23.80;13.05;;;0.50;89.80;;;;;;5025566;28;20025;-70
2023/01/18 11:04:16;;;;;;;22.85;13.25;;;0.50;89.30;;;;;;5020298;28;20084;-70
2023/01/18 11:06:47;;;;;;;25.35;13.05;;;0.60;89.70;;;;;;5027321;28;20100;-70
2023/01/18 11:09:50;;;;;;;19.73;12.32;;;0.60;89.20;;;;;;5025742;28;20390;-70
2023/01/18 11:12:37;;;;;;;19.70;12.43;;;0.70;89.90;;;;;;5025570;28;20466;-69
2023/01/18 11:15:14;;;;;;;19.80;11.45;;;0.70;89.20;;;;;;5012380;28;20033;-68
2023/01/18 11:17:49;;;;;;;20.77;12.55;;;0.90;89.80;;;;;;5012433;28;20038;-69
2023/01/18 11:20:17;;;;;;;21.90;12.15;;;0.90;89.50;;;;;;5015323;28;20022;-70
2023/01/18 11:22:55;;;;;;;21.25;12.25;;;0.80;88.70;;;;;;5027826;28;20097;-69
2023/01/18 11:25:21;;;;;;;20.42;12.27;;;0.80;88.90;;;;;;5030159;28;20495;-70
2023/01/18 11:27:48;;;;;;;20.52;12.63;;;0.80;88.70;;;;;;5027008;28;20148;-70
2023/01/18 11:30:23;;;;;;;22.42;12.23;;;0.90;89.00;;;;;;5031545;28;20069;-70
2023/01/18 11:32:50;;;;;;;19.35;11.75;;;1.00;89.30;;;;;;5024450;28;20399;-69
2023/01/18 11:35:35;;;;;;;21.33;12.07;;;1.00;89.10;;;;;;5017281;28;20137;-70
2023/01/18 11:38:02;;;;;;;20.35;11.40;;;1.00;88.70;;;;;;5019690;28;20041;-70
2023/01/18 11:40:31;;;;;;;20.35;12.00;;;1.20;88.80;;;;;;5018062;28;20389;-70
2023/01/18 11:43:13;;;;;;;23.48;12.93;;;1.10;87.60;;;;;;5023903;28;20482;-70
2023/01/18 11:45:59;;;;;;;21.55;12.10;;;1.20;88.40;;;;;;5031620;28;20390;-70
2023/01/18 11:48:37;;;;;;;18.30;11.68;;;1.30;88.10;;;;;;5031719;28;20026;-70
2023/01/18 11:51:22;;;;;;;32.75;20.83;;;1.30;87.50;;;;;;5019528;28;20107;-70
2023/01/18 11:54:12;;;;;;;23.70;14.82;;;1.20;87.60;;;;;;5026274;28;20037;-70
2023/01/18 11:56:49;;;;;;;23.23;12.52;;;1.20;87.50;;;;;;5029325;28;20026;-70
2023/01/18 11:59:29;;;;;;;19.30;11.23;;;1.30;87.70;;;;;;5021759;28;20481;-71
2023/01/18 12:02:19;;;;;;;18.08;11.27;;;1.30;87.30;;;;;;5016287;28;20025;-70
2023/01/18 12:05:21;;;;;;;19.33;10.82;;;1.40;87.40;;;;;;5025708;28;20393;-70
2023/01/18 12:08:29;;;;;;;18.95;10.32;;;1.60;86.80;;;;;;5026643;28;20160;-70
2023/01/18 12:11:18;;;;;;;18.27;11.27;;;1.60;86.70;;;;;;5014554;28;20517;-70
2023/01/18 12:13:48;;;;;;;21.02;12.15;;;1.60;86.20;;;;;;5018113;28;20030;-70
2023/01/18 12:16:34;;;;;;;17.35;11.05;;;1.60;86.40;;;;;;5024455;28;20026;-71
2023/01/18 12:19:16;;;;;;;19.90;11.48;;;1.70;86.10;;;;;;5009781;28;20045;-71
2023/01/18 12:21:56;;;;;;;18.75;11.63;;;1.90;85.90;;;;;;5019333;28;20022;-71
2023/01/18 12:24:42;;;;;;;14.95;9.85;;;1.80;85.40;;;;;;5017851;28;20129;-71
2023/01/18 12:27:33;;;;;;;18.05;10.40;;;2.10;85.10;;;;;;5025265;28;20030;-71
2023/01/18 12:29:59;;;;;;;16.33;9.65;;;2.30;85.10;;;;;;5017464;28;20034;-71
2023/01/18 12:32:47;;;;;;;17.65;9.27;;;2.40;84.00;;;;;;5022299;28;20120;-71
2023/01/18 12:35:13;;;;;;;17.35;9.88;;;2.60;83.00;;;;;;5018310;28;20021;-71
2023/01/18 12:37:54;;;;;;;16.77;9.32;;;2.70;83.10;;;;;;5028059;28;20040;-71
2023/01/18 12:40:38;;;;;;;17.13;9.18;;;2.80;82.40;;;;;;5035055;28;20176;-71
2023/01/18 12:43:09;;;;;;;16.35;9.02;;;3.00;83.10;;;;;;5022124;28;20033;-71
2023/01/18 12:45:38;;;;;;;16.27;8.95;;;2.90;81.20;;;;;;5017656;28;20034;-75
2023/01/18 12:48:35;;;;;;;16.50;9.18;;;2.80;81.70;;;;;;5029673;28;20025;-72
2023/01/18 12:51:08;;;;;;;16.02;8.98;;;2.90;81.70;;;;;;5032019;28;20079;-71
2023/01/18 12:53:43;;;;;;;15.80;8.80;;;2.90;81.50;;;;;;5022310;28;20065;-71
2023/01/18 12:56:40;;;;;;;11.65;7.97;;;2.70;81.70;;;;;;5036087;28;20025;-71
2023/01/18 12:59:14;;;;;;;15.10;8.95;;;2.70;82.00;;;;;;5025464;28;20297;-71
2023/01/18 13:01:44;;;;;;;14.75;8.88;;;2.40;81.90;;;;;;5023890;28;20119;-70